sensor_id;sensor_type;location;lat;lon;timestamp;pressure;altitude;pressure_sealevel;temperature;humidity
27032;BME280;14580;52.918;9.214;2024-01-06T00:01:16;100075.19;;;3.71;100.00
27032;BME280;14580;52.918;9.214;2024-01-06T00:03:42;100080.66;;;3.63;100.00
27032;BME280;14580;52.918;9.214;2024-01-06T00:06:12;100081.72;;;3.76;100.00
27032;BME280;14580;52.918;9.214;2024-01-06T00:08:38;100085.78;;;3.81;100.00
27032;BME280;14580;52.918;9.214;2024-01-06T00:11:04;100077.59;;;3.74;100.00
27032;BME280;14580;52.918;9.214;2024-01-06T00:13:30;100086.75;;;3.78;100.00
27032;BME280;14580;52.918;9.214;2024-01-06T00:15:56;100091.19;;;3.74;100.00
27032;BME280;14580;52.918;9.214;2024-01-06T00:18:22;100087.66;;;3.77;100.00
27032;BME280;14580;52.918;9.214;2024-01-06T00:20:48;100093.44;;;3.81;100.00
27032;BME280;14580;52.918;9.214;2024-01-06T00:23:14;100099.38;;;3.81;100.00
27032;BME280;14580;52.918;9.214;2024-01-06T00:25:40;100097.19;;;3.73;100.00
27032;BME280;14580;52.918;9.214;2024-01-06T00:28:05;100099.06;;;3.70;100.00
27032;BME280;14580;52.918;9.214;2024-01-06T00:30:31;100102.38;;;3.72;100.00
27032;BME280;14580;52.918;9.214;2024-01-06T00:32:57;100098.16;;;3.71;100.00
27032;BME280;14580;52.918;9.214;2024-01-06T00:35:23;100104.19;;;3.70;100.00
27032;BME280;14580;52.918;9.214;2024-01-06T00:37:49;100109.34;;;3.68;100.00
27032;BME280;14580;52.918;9.214;2024-01-06T00:40:14;100114.91;;;3.76;100.00
27032;BME280;14580;52.918;9.214;2024-01-06T00:42:40;100114.09;;;3.76;100.00
27032;BME280;14580;52.918;9.214;2024-01-06T00:45:07;100117.09;;;3.67;100.00
27032;BME280;14580;52.918;9.214;2024-01-06T00:47:33;100122.88;;;3.70;100.00
27032;BME280;14580;52.918;9.214;2024-01-06T00:49:59;100116.94;;;3.70;100.00
27032;BME280;14580;52.918;9.214;2024-01-06T00:52:24;100117.69;;;3.72;100.00
27032;BME280;14580;52.918;9.214;2024-01-06T00:54:51;100116.13;;;3.69;100.00
27032;BME280;14580;52.918;9.214;2024-01-06T00:57:17;100126.47;;;3.66;100.00
27032;BME280;14580;52.918;9.214;2024-01-06T00:59:49;100121.69;;;3.60;100.00
27032;BME280;14580;52.918;9.214;2024-01-06T01:02:16;100129.63;;;3.71;100.00
27032;BME280;14580;52.918;9.214;2024-01-06T01:04:42;100128.88;;;3.69;100.00
27032;BME280;14580;52.918;9.214;2024-01-06T01:07:08;100139.19;;;3.68;100.00
27032;BME280;14580;52.918;9.214;2024-01-06T01:09:35;100137.50;;;3.67;100.00
27032;BME280;14580;52.918;9.214;2024-01-06T01:12:00;100139.31;;;3.65;100.00
27032;BME280;14580;52.918;9.214;2024-01-06T01:14:26;100156.44;;;3.63;100.00
27032;BME280;14580;52.918;9.214;2024-01-06T01:16:52;100149.59;;;3.63;100.00
27032;BME280;14580;52.918;9.214;2024-01-06T01:19:18;100148.00;;;3.61;100.00
27032;BME280;14580;52.918;9.214;2024-01-06T01:21:44;100144.28;;;3.68;100.00
27032;BME280;14580;52.918;9.214;2024-01-06T01:24:10;100153.06;;;3.62;100.00
27032;BME280;14580;52.918;9.214;2024-01-06T01:26:45;100149.06;;;3.74;100.00
27032;BME280;14580;52.918;9.214;2024-01-06T01:29:11;100147.44;;;3.73;100.00
27032;BME280;14580;52.918;9.214;2024-01-06T01:31:37;100160.25;;;3.71;100.00
27032;BME280;14580;52.918;9.214;2024-01-06T01:34:08;100164.69;;;3.68;100.00
27032;BME280;14580;52.918;9.214;2024-01-06T01:36:34;100165.44;;;3.70;100.00
27032;BME280;14580;52.918;9.214;2024-01-06T01:39:00;100167.25;;;3.68;100.00
27032;BME280;14580;52.918;9.214;2024-01-06T01:41:29;100168.81;;;3.70;100.00
27032;BME280;14580;52.918;9.214;2024-01-06T01:43:54;100180.00;;;3.68;100.00
27032;BME280;14580;52.918;9.214;2024-01-06T01:46:28;100175.56;;;3.71;100.00
27032;BME280;14580;52.918;9.214;2024-01-06T01:49:09;100178.25;;;3.68;100.00
27032;BME280;14580;52.918;9.214;2024-01-06T01:51:38;100191.72;;;3.72;100.00
27032;BME280;14580;52.918;9.214;2024-01-06T01:54:15;100193.97;;;3.78;100.00
27032;BME280;14580;52.918;9.214;2024-01-06T01:56:42;100189.78;;;3.77;100.00
27032;BME280;14580;52.918;9.214;2024-01-06T01:59:12;100189.91;;;3.74;100.00
27032;BME280;14580;52.918;9.214;2024-01-06T02:01:40;100195.16;;;3.71;100.00
27032;BME280;14580;52.918;9.214;2024-01-06T02:04:06;100195.00;;;3.74;100.00
27032;BME280;14580;52.918;9.214;2024-01-06T02:06:32;100206.06;;;3.74;100.00
27032;BME280;14580;52.918;9.214;2024-01-06T02:08:58;100198.16;;;3.79;100.00
27032;BME280;14580;52.918;9.214;2024-01-06T02:11:24;100203.28;;;3.79;100.00
27032;BME280;14580;52.918;9.214;2024-01-06T02:13:50;100203.00;;;3.85;100.00
27032;BME280;14580;52.918;9.214;2024-01-06T02:16:16;100211.53;;;3.84;100.00
27032;BME280;14580;52.918;9.214;2024-01-06T02:18:42;100221.59;;;3.87;100.00
27032;BME280;14580;52.918;9.214;2024-01-06T02:21:08;100216.50;;;3.87;100.00
27032;BME280;14580;52.918;9.214;2024-01-06T02:23:36;100224.75;;;3.92;100.00
27032;BME280;14580;52.918;9.214;2024-01-06T02:26:03;100215.75;;;3.85;100.00
27032;BME280;14580;52.918;9.214;2024-01-06T02:28:28;100228.25;;;3.91;100.00
27032;BME280;14580;52.918;9.214;2024-01-06T02:30:54;100224.25;;;3.86;100.00
27032;BME280;14580;52.918;9.214;2024-01-06T02:33:20;100217.34;;;3.88;100.00
27032;BME280;14580;52.918;9.214;2024-01-06T02:35:49;100223.28;;;3.88;100.00
27032;BME280;14580;52.918;9.214;2024-01-06T02:38:15;100228.38;;;3.88;100.00
27032;BME280;14580;52.918;9.214;2024-01-06T02:40:41;100221.75;;;3.84;100.00
27032;BME280;14580;52.918;9.214;2024-01-06T02:43:08;100230.19;;;3.86;100.00
27032;BME280;14580;52.918;9.214;2024-01-06T02:45:35;100238.59;;;3.88;100.00
27032;BME280;14580;52.918;9.214;2024-01-06T02:48:03;100238.72;;;3.85;100.00
27032;BME280;14580;52.918;9.214;2024-01-06T02:50:38;100231.81;;;3.87;100.00
27032;BME280;14580;52.918;9.214;2024-01-06T02:53:04;100236.19;;;3.85;100.00
27032;BME280;14580;52.918;9.214;2024-01-06T02:55:30;100237.69;;;3.89;100.00
27032;BME280;14580;52.918;9.214;2024-01-06T02:57:55;100242.88;;;3.88;100.00
27032;BME280;14580;52.918;9.214;2024-01-06T03:00:21;100248.81;;;3.88;100.00
27032;BME280;14580;52.918;9.214;2024-01-06T03:02:47;100248.53;;;3.94;100.00
27032;BME280;14580;52.918;9.214;2024-01-06T03:05:13;100249.41;;;3.93;100.00
27032;BME280;14580;52.918;9.214;2024-01-06T03:07:39;100253.63;;;3.94;100.00
27032;BME280;14580;52.918;9.214;2024-01-06T03:10:08;100252.78;;;3.94;100.00
27032;BME280;14580;52.918;9.214;2024-01-06T03:13:19;100261.22;;;3.96;100.00
27032;BME280;14580;52.918;9.214;2024-01-06T03:15:48;100257.97;;;3.92;100.00
27032;BME280;14580;52.918;9.214;2024-01-06T03:18:14;100258.75;;;3.94;100.00
27032;BME280;14580;52.918;9.214;2024-01-06T03:20:41;100264.00;;;3.91;100.00
27032;BME280;14580;52.918;9.214;2024-01-06T03:23:07;100273.22;;;3.94;100.00
27032;BME280;14580;52.918;9.214;2024-01-06T03:25:33;100273.00;;;3.81;100.00
27032;BME280;14580;52.918;9.214;2024-01-06T03:27:59;100272.69;;;3.87;100.00
27032;BME280;14580;52.918;9.214;2024-01-06T03:30:30;100274.88;;;3.95;100.00
27032;BME280;14580;52.918;9.214;2024-01-06T03:32:56;100275.84;;;3.92;100.00
27032;BME280;14580;52.918;9.214;2024-01-06T03:35:22;100292.34;;;3.85;100.00
27032;BME280;14580;52.918;9.214;2024-01-06T03:37:59;100292.81;;;3.93;100.00
27032;BME280;14580;52.918;9.214;2024-01-06T03:45:40;100308.16;;;3.93;100.00
27032;BME280;14580;52.918;9.214;2024-01-06T03:48:10;100303.44;;;3.84;100.00
27032;BME280;14580;52.918;9.214;2024-01-06T03:50:38;100310.22;;;3.85;100.00
27032;BME280;14580;52.918;9.214;2024-01-06T03:53:05;100310.97;;;3.87;100.00
27032;BME280;14580;52.918;9.214;2024-01-06T03:55:31;100315.94;;;3.90;100.00
27032;BME280;14580;52.918;9.214;2024-01-06T03:58:01;100328.31;;;3.81;100.00
27032;BME280;14580;52.918;9.214;2024-01-06T04:00:28;100319.34;;;3.91;100.00
27032;BME280;14580;52.918;9.214;2024-01-06T04:02:56;100326.16;;;3.90;100.00
27032;BME280;14580;52.918;9.214;2024-01-06T04:05:21;100329.69;;;3.88;100.00
27032;BME280;14580;52.918;9.214;2024-01-06T04:07:47;100334.53;;;3.75;100.00
27032;BME280;14580;52.918;9.214;2024-01-06T04:10:14;100346.66;;;3.89;100.00
27032;BME280;14580;52.918;9.214;2024-01-06T04:12:45;100347.91;;;3.80;100.00
27032;BME280;14580;52.918;9.214;2024-01-06T04:15:11;100340.03;;;3.85;100.00
27032;BME280;14580;52.918;9.214;2024-01-06T04:17:37;100342.53;;;3.86;100.00
27032;BME280;14580;52.918;9.214;2024-01-06T04:20:03;100344.16;;;3.87;100.00
27032;BME280;14580;52.918;9.214;2024-01-06T04:22:29;100351.09;;;3.85;100.00
27032;BME280;14580;52.918;9.214;2024-01-06T04:24:55;100352.75;;;3.86;100.00
27032;BME280;14580;52.918;9.214;2024-01-06T04:27:21;100348.53;;;3.85;100.00
27032;BME280;14580;52.918;9.214;2024-01-06T04:29:47;100360.94;;;3.74;100.00
27032;BME280;14580;52.918;9.214;2024-01-06T04:32:13;100355.22;;;3.69;100.00
27032;BME280;14580;52.918;9.214;2024-01-06T04:34:39;100353.50;;;3.69;100.00
27032;BME280;14580;52.918;9.214;2024-01-06T04:37:05;100362.66;;;3.73;100.00
27032;BME280;14580;52.918;9.214;2024-01-06T04:39:31;100365.31;;;3.72;100.00
27032;BME280;14580;52.918;9.214;2024-01-06T04:41:57;100373.72;;;3.74;100.00
27032;BME280;14580;52.918;9.214;2024-01-06T04:44:24;100377.66;;;3.81;100.00
27032;BME280;14580;52.918;9.214;2024-01-06T04:46:50;100377.72;;;3.80;100.00
27032;BME280;14580;52.918;9.214;2024-01-06T04:49:15;100383.22;;;3.89;100.00
27032;BME280;14580;52.918;9.214;2024-01-06T04:51:41;100376.63;;;3.85;100.00
27032;BME280;14580;52.918;9.214;2024-01-06T04:54:07;100386.06;;;3.83;100.00
27032;BME280;14580;52.918;9.214;2024-01-06T04:56:33;100390.28;;;3.84;100.00
27032;BME280;14580;52.918;9.214;2024-01-06T04:59:00;100390.69;;;3.75;100.00
27032;BME280;14580;52.918;9.214;2024-01-06T05:01:26;100393.25;;;3.75;100.00
27032;BME280;14580;52.918;9.214;2024-01-06T05:03:52;100389.94;;;3.73;100.00
27032;BME280;14580;52.918;9.214;2024-01-06T05:06:18;100398.97;;;3.80;100.00
27032;BME280;14580;52.918;9.214;2024-01-06T05:08:44;100390.69;;;3.75;100.00
27032;BME280;14580;52.918;9.214;2024-01-06T05:11:11;100405.75;;;3.81;100.00
27032;BME280;14580;52.918;9.214;2024-01-06T05:13:37;100402.72;;;3.73;100.00
27032;BME280;14580;52.918;9.214;2024-01-06T05:16:04;100398.56;;;3.70;100.00
27032;BME280;14580;52.918;9.214;2024-01-06T05:18:30;100401.25;;;3.67;100.00
27032;BME280;14580;52.918;9.214;2024-01-06T05:20:56;100402.97;;;3.67;100.00
27032;BME280;14580;52.918;9.214;2024-01-06T05:23:22;100403.84;;;3.66;100.00
27032;BME280;14580;52.918;9.214;2024-01-06T05:25:48;100402.84;;;3.70;100.00
27032;BME280;14580;52.918;9.214;2024-01-06T05:28:14;100411.09;;;3.56;100.00
27032;BME280;14580;52.918;9.214;2024-01-06T05:30:40;100406.41;;;3.66;100.00
27032;BME280;14580;52.918;9.214;2024-01-06T05:33:12;100412.34;;;3.66;100.00
27032;BME280;14580;52.918;9.214;2024-01-06T05:35:41;100423.94;;;3.55;100.00
27032;BME280;14580;52.918;9.214;2024-01-06T05:38:07;100424.19;;;3.49;100.00
27032;BME280;14580;52.918;9.214;2024-01-06T05:40:33;100424.63;;;3.40;100.00
27032;BME280;14580;52.918;9.214;2024-01-06T05:42:59;100441.19;;;3.50;100.00
27032;BME280;14580;52.918;9.214;2024-01-06T05:45:24;100433.03;;;3.42;100.00
27032;BME280;14580;52.918;9.214;2024-01-06T05:47:50;100431.22;;;3.44;100.00
27032;BME280;14580;52.918;9.214;2024-01-06T05:50:16;100443.72;;;3.50;100.00
27032;BME280;14580;52.918;9.214;2024-01-06T05:52:43;100441.22;;;3.48;100.00
27032;BME280;14580;52.918;9.214;2024-01-06T05:55:09;100443.91;;;3.45;100.00
27032;BME280;14580;52.918;9.214;2024-01-06T05:57:35;100455.53;;;3.52;100.00
27032;BME280;14580;52.918;9.214;2024-01-06T06:00:01;100454.13;;;3.45;100.00
27032;BME280;14580;52.918;9.214;2024-01-06T06:02:27;100461.97;;;3.41;100.00
27032;BME280;14580;52.918;9.214;2024-01-06T06:04:56;100461.84;;;3.44;100.00
27032;BME280;14580;52.918;9.214;2024-01-06T06:07:22;100468.34;;;3.51;100.00
27032;BME280;14580;52.918;9.214;2024-01-06T06:09:52;100462.22;;;3.35;100.00
27032;BME280;14580;52.918;9.214;2024-01-06T06:12:18;100472.31;;;3.38;100.00
27032;BME280;14580;52.918;9.214;2024-01-06T06:14:44;100477.41;;;3.38;100.00
27032;BME280;14580;52.918;9.214;2024-01-06T06:17:10;100478.56;;;3.31;100.00
27032;BME280;14580;52.918;9.214;2024-01-06T06:19:36;100481.38;;;3.25;100.00
27032;BME280;14580;52.918;9.214;2024-01-06T06:22:02;100480.25;;;3.32;100.00
27032;BME280;14580;52.918;9.214;2024-01-06T06:24:31;100490.44;;;3.32;100.00
27032;BME280;14580;52.918;9.214;2024-01-06T06:26:57;100491.44;;;3.28;100.00
27032;BME280;14580;52.918;9.214;2024-01-06T06:29:23;100500.50;;;3.35;100.00
27032;BME280;14580;52.918;9.214;2024-01-06T06:31:49;100506.50;;;3.34;100.00
27032;BME280;14580;52.918;9.214;2024-01-06T06:34:15;100507.78;;;3.24;100.00
27032;BME280;14580;52.918;9.214;2024-01-06T06:36:41;100510.97;;;3.29;100.00
27032;BME280;14580;52.918;9.214;2024-01-06T06:39:07;100519.25;;;3.34;100.00
27032;BME280;14580;52.918;9.214;2024-01-06T06:41:33;100518.22;;;3.38;100.00
27032;BME280;14580;52.918;9.214;2024-01-06T06:43:58;100528.72;;;3.32;100.00
27032;BME280;14580;52.918;9.214;2024-01-06T06:46:25;100543.75;;;3.38;100.00
27032;BME280;14580;52.918;9.214;2024-01-06T06:48:51;100539.72;;;3.32;100.00
27032;BME280;14580;52.918;9.214;2024-01-06T06:51:17;100548.97;;;3.35;100.00
27032;BME280;14580;52.918;9.214;2024-01-06T06:53:43;100555.50;;;3.42;100.00
27032;BME280;14580;52.918;9.214;2024-01-06T06:56:09;100567.22;;;3.46;100.00
27032;BME280;14580;52.918;9.214;2024-01-06T06:58:35;100567.88;;;3.31;100.00
27032;BME280;14580;52.918;9.214;2024-01-06T07:01:04;100575.19;;;3.38;100.00
27032;BME280;14580;52.918;9.214;2024-01-06T07:03:31;100584.56;;;3.38;100.00
27032;BME280;14580;52.918;9.214;2024-01-06T07:05:59;100580.06;;;3.44;100.00
27032;BME280;14580;52.918;9.214;2024-01-06T07:08:30;100581.91;;;3.41;100.00
27032;BME280;14580;52.918;9.214;2024-01-06T07:10:58;100596.44;;;3.39;100.00
27032;BME280;14580;52.918;9.214;2024-01-06T07:13:23;100594.47;;;3.45;100.00
27032;BME280;14580;52.918;9.214;2024-01-06T07:15:49;100603.47;;;3.54;100.00
27032;BME280;14580;52.918;9.214;2024-01-06T07:18:15;100599.97;;;3.56;100.00
27032;BME280;14580;52.918;9.214;2024-01-06T07:20:41;100592.88;;;3.43;100.00
27032;BME280;14580;52.918;9.214;2024-01-06T07:23:07;100603.34;;;3.37;100.00
27032;BME280;14580;52.918;9.214;2024-01-06T07:25:33;100609.31;;;3.36;100.00
27032;BME280;14580;52.918;9.214;2024-01-06T07:28:13;100618.53;;;3.40;100.00
27032;BME280;14580;52.918;9.214;2024-01-06T07:30:44;100619.22;;;3.43;100.00
27032;BME280;14580;52.918;9.214;2024-01-06T07:33:13;100628.66;;;3.41;100.00
27032;BME280;14580;52.918;9.214;2024-01-06T07:35:44;100621.97;;;3.39;100.00
27032;BME280;14580;52.918;9.214;2024-01-06T07:38:10;100622.09;;;3.36;100.00
27032;BME280;14580;52.918;9.214;2024-01-06T07:40:36;100616.97;;;3.36;100.00
27032;BME280;14580;52.918;9.214;2024-01-06T07:43:03;100623.56;;;3.41;100.00
27032;BME280;14580;52.918;9.214;2024-01-06T07:45:30;100629.44;;;3.43;100.00
27032;BME280;14580;52.918;9.214;2024-01-06T07:47:58;100620.19;;;3.41;100.00
27032;BME280;14580;52.918;9.214;2024-01-06T07:50:24;100634.50;;;3.45;100.00
27032;BME280;14580;52.918;9.214;2024-01-06T07:52:53;100639.94;;;3.36;100.00
27032;BME280;14580;52.918;9.214;2024-01-06T07:55:19;100654.91;;;3.45;100.00
27032;BME280;14580;52.918;9.214;2024-01-06T07:57:45;100658.03;;;3.51;100.00
27032;BME280;14580;52.918;9.214;2024-01-06T08:00:12;100651.50;;;3.44;100.00
27032;BME280;14580;52.918;9.214;2024-01-06T08:02:42;100657.31;;;3.48;100.00
27032;BME280;14580;52.918;9.214;2024-01-06T08:05:08;100669.19;;;3.49;100.00
27032;BME280;14580;52.918;9.214;2024-01-06T08:07:34;100675.19;;;3.48;100.00
27032;BME280;14580;52.918;9.214;2024-01-06T08:10:00;100684.50;;;3.49;100.00
27032;BME280;14580;52.918;9.214;2024-01-06T08:12:27;100678.81;;;3.42;100.00
27032;BME280;14580;52.918;9.214;2024-01-06T08:14:53;100691.28;;;3.50;100.00
27032;BME280;14580;52.918;9.214;2024-01-06T08:17:19;100696.72;;;3.41;100.00
27032;BME280;14580;52.918;9.214;2024-01-06T08:19:45;100698.44;;;3.40;100.00
27032;BME280;14580;52.918;9.214;2024-01-06T08:22:13;100706.81;;;3.44;100.00
27032;BME280;14580;52.918;9.214;2024-01-06T08:24:39;100706.94;;;3.41;100.00
27032;BME280;14580;52.918;9.214;2024-01-06T08:27:05;100706.59;;;3.50;100.00
27032;BME280;14580;52.918;9.214;2024-01-06T08:29:33;100705.16;;;3.43;100.00
27032;BME280;14580;52.918;9.214;2024-01-06T08:32:00;100710.25;;;3.43;100.00
27032;BME280;14580;52.918;9.214;2024-01-06T08:34:26;100717.25;;;3.38;100.00
27032;BME280;14580;52.918;9.214;2024-01-06T08:36:52;100723.91;;;3.42;100.00
27032;BME280;14580;52.918;9.214;2024-01-06T08:39:18;100740.66;;;3.49;100.00
27032;BME280;14580;52.918;9.214;2024-01-06T08:41:44;100734.00;;;3.45;100.00
27032;BME280;14580;52.918;9.214;2024-01-06T08:44:10;100734.25;;;3.39;100.00
27032;BME280;14580;52.918;9.214;2024-01-06T08:46:36;100739.34;;;3.39;100.00
27032;BME280;14580;52.918;9.214;2024-01-06T08:49:02;100741.94;;;3.37;100.00
27032;BME280;14580;52.918;9.214;2024-01-06T08:51:28;100754.09;;;3.31;100.00
27032;BME280;14580;52.918;9.214;2024-01-06T08:53:54;100755.88;;;3.29;100.00
27032;BME280;14580;52.918;9.214;2024-01-06T08:56:20;100751.22;;;3.40;100.00
27032;BME280;14580;52.918;9.214;2024-01-06T08:58:46;100751.56;;;3.31;100.00
27032;BME280;14580;52.918;9.214;2024-01-06T09:01:12;100762.81;;;3.25;100.00
27032;BME280;14580;52.918;9.214;2024-01-06T09:03:39;100765.06;;;3.33;100.00
27032;BME280;14580;52.918;9.214;2024-01-06T09:06:20;100768.94;;;3.43;100.00
27032;BME280;14580;52.918;9.214;2024-01-06T09:08:45;100771.75;;;3.37;100.00
27032;BME280;14580;52.918;9.214;2024-01-06T09:11:11;100777.78;;;3.34;100.00
27032;BME280;14580;52.918;9.214;2024-01-06T09:13:37;100777.19;;;3.28;100.00
27032;BME280;14580;52.918;9.214;2024-01-06T09:16:03;100782.28;;;3.28;100.00
27032;BME280;14580;52.918;9.214;2024-01-06T09:18:29;100792.84;;;3.19;100.00
27032;BME280;14580;52.918;9.214;2024-01-06T09:20:55;100787.63;;;3.22;100.00
27032;BME280;14580;52.918;9.214;2024-01-06T09:23:22;100786.25;;;3.11;100.00
27032;BME280;14580;52.918;9.214;2024-01-06T09:25:48;100792.44;;;3.06;100.00
27032;BME280;14580;52.918;9.214;2024-01-06T09:28:18;100794.00;;;3.10;100.00
27032;BME280;14580;52.918;9.214;2024-01-06T09:30:44;100810.69;;;3.19;100.00
27032;BME280;14580;52.918;9.214;2024-01-06T09:33:29;100811.78;;;3.11;100.00
27032;BME280;14580;52.918;9.214;2024-01-06T09:35:55;100813.34;;;3.16;100.00
27032;BME280;14580;52.918;9.214;2024-01-06T09:38:22;100819.94;;;3.21;100.00
27032;BME280;14580;52.918;9.214;2024-01-06T09:40:49;100825.31;;;3.13;100.00
27032;BME280;14580;52.918;9.214;2024-01-06T09:43:15;100828.44;;;3.22;100.00
27032;BME280;14580;52.918;9.214;2024-01-06T09:45:42;100829.97;;;3.26;100.00
27032;BME280;14580;52.918;9.214;2024-01-06T09:48:14;100844.72;;;3.18;100.00
27032;BME280;14580;52.918;9.214;2024-01-06T09:50:44;100835.53;;;3.13;100.00
27032;BME280;14580;52.918;9.214;2024-01-06T09:53:13;100850.00;;;3.13;100.00
27032;BME280;14580;52.918;9.214;2024-01-06T09:55:39;100849.25;;;3.09;100.00
27032;BME280;14580;52.918;9.214;2024-01-06T09:58:07;100843.94;;;3.16;100.00
27032;BME280;14580;52.918;9.214;2024-01-06T10:00:34;100847.72;;;3.05;100.00
27032;BME280;14580;52.918;9.214;2024-01-06T10:03:00;100850.59;;;3.20;100.00
27032;BME280;14580;52.918;9.214;2024-01-06T10:05:26;100852.28;;;3.21;100.00
27032;BME280;14580;52.918;9.214;2024-01-06T10:07:56;100849.25;;;3.09;100.00
27032;BME280;14580;52.918;9.214;2024-01-06T10:26:47;100879.22;;;3.28;100.00
27032;BME280;14580;52.918;9.214;2024-01-06T10:34:10;100872.78;;;3.18;100.00
27032;BME280;14580;52.918;9.214;2024-01-06T10:50:04;100891.50;;;3.17;100.00
27032;BME280;14580;52.918;9.214;2024-01-06T10:52:50;100896.84;;;3.10;100.00
27032;BME280;14580;52.918;9.214;2024-01-06T10:55:19;100890.16;;;3.06;100.00
27032;BME280;14580;52.918;9.214;2024-01-06T10:57:47;100895.16;;;3.09;100.00
27032;BME280;14580;52.918;9.214;2024-01-06T11:00:16;100891.66;;;3.13;100.00
27032;BME280;14580;52.918;9.214;2024-01-06T11:02:42;100898.66;;;3.07;100.00
27032;BME280;14580;52.918;9.214;2024-01-06T11:33:28;100914.31;;;2.96;100.00
27032;BME280;14580;52.918;9.214;2024-01-06T11:35:55;100918.56;;;2.97;100.00
27032;BME280;14580;52.918;9.214;2024-01-06T11:38:24;100928.06;;;2.92;100.00
27032;BME280;14580;52.918;9.214;2024-01-06T11:41:01;100917.66;;;2.98;100.00
27032;BME280;14580;52.918;9.214;2024-01-06T11:43:27;100925.25;;;3.00;100.00
27032;BME280;14580;52.918;9.214;2024-01-06T11:45:58;100931.50;;;2.91;100.00
27032;BME280;14580;52.918;9.214;2024-01-06T11:49:26;100923.22;;;2.85;100.00
27032;BME280;14580;52.918;9.214;2024-01-06T11:52:02;100929.38;;;2.78;100.00
27032;BME280;14580;52.918;9.214;2024-01-06T11:54:31;100935.53;;;2.72;100.00
27032;BME280;14580;52.918;9.214;2024-01-06T11:57:04;100931.06;;;2.79;100.00
27032;BME280;14580;52.918;9.214;2024-01-06T12:02:30;100935.66;;;2.94;100.00
27032;BME280;14580;52.918;9.214;2024-01-06T12:04:57;100934.13;;;2.88;100.00
27032;BME280;14580;52.918;9.214;2024-01-06T12:07:25;100938.22;;;2.94;100.00
27032;BME280;14580;52.918;9.214;2024-01-06T12:10:02;100939.38;;;2.84;100.00
27032;BME280;14580;52.918;9.214;2024-01-06T12:12:28;100952.09;;;2.85;100.00
27032;BME280;14580;52.918;9.214;2024-01-06T12:56:26;100983.63;;;2.57;100.00
27032;BME280;14580;52.918;9.214;2024-01-06T12:58:52;100984.25;;;2.63;100.00
27032;BME280;14580;52.918;9.214;2024-01-06T13:01:21;100990.78;;;2.72;100.00
27032;BME280;14580;52.918;9.214;2024-01-06T13:03:52;100989.19;;;2.68;100.00
27032;BME280;14580;52.918;9.214;2024-01-06T13:06:24;100987.78;;;2.59;100.00
27032;BME280;14580;52.918;9.214;2024-01-06T13:08:52;100993.91;;;2.52;100.00
27032;BME280;14580;52.918;9.214;2024-01-06T13:11:19;100992.19;;;2.54;100.00
27032;BME280;14580;52.918;9.214;2024-01-06T13:27:30;101018.84;;;2.70;100.00
27032;BME280;14580;52.918;9.214;2024-01-06T13:29:56;101008.97;;;2.60;100.00
27032;BME280;14580;52.918;9.214;2024-01-06T13:32:23;101013.59;;;2.48;100.00
27032;BME280;14580;52.918;9.214;2024-01-06T13:34:50;101021.09;;;2.53;100.00
27032;BME280;14580;52.918;9.214;2024-01-06T13:37:20;101018.06;;;2.68;100.00
27032;BME280;14580;52.918;9.214;2024-01-06T13:39:48;101026.56;;;2.69;100.00
27032;BME280;14580;52.918;9.214;2024-01-06T13:42:17;101034.34;;;2.64;100.00
27032;BME280;14580;52.918;9.214;2024-01-06T16:56:21;101280.25;;;1.80;100.00
27032;BME280;14580;52.918;9.214;2024-01-06T16:58:47;101266.66;;;1.81;100.00
27032;BME280;14580;52.918;9.214;2024-01-06T17:01:14;101276.03;;;1.79;100.00
27032;BME280;14580;52.918;9.214;2024-01-06T17:03:47;101275.84;;;1.88;100.00
27032;BME280;14580;52.918;9.214;2024-01-06T17:06:13;101285.16;;;1.88;100.00
27032;BME280;14580;52.918;9.214;2024-01-06T17:08:39;101287.53;;;1.96;100.00
27032;BME280;14580;52.918;9.214;2024-01-06T17:11:06;101282.50;;;1.93;100.00
27032;BME280;14580;52.918;9.214;2024-01-06T17:13:33;101292.91;;;1.83;100.00
27032;BME280;14580;52.918;9.214;2024-01-06T17:15:59;101286.81;;;1.91;100.00
27032;BME280;14580;52.918;9.214;2024-01-06T17:18:26;101295.31;;;1.89;100.00
27032;BME280;14580;52.918;9.214;2024-01-06T17:21:03;101299.53;;;1.91;100.00
27032;BME280;14580;52.918;9.214;2024-01-06T18:07:53;101371.63;;;1.93;100.00
27032;BME280;14580;52.918;9.214;2024-01-06T18:10:22;101373.41;;;1.89;100.00
27032;BME280;14580;52.918;9.214;2024-01-06T18:12:48;101373.25;;;1.97;100.00
27032;BME280;14580;52.918;9.214;2024-01-06T18:15:18;101372.81;;;1.76;100.00
27032;BME280;14580;52.918;9.214;2024-01-06T18:17:57;101386.16;;;1.87;100.00
27032;BME280;14580;52.918;9.214;2024-01-06T18:20:23;101388.81;;;1.83;100.00
27032;BME280;14580;52.918;9.214;2024-01-06T18:22:50;101389.44;;;1.93;100.00
27032;BME280;14580;52.918;9.214;2024-01-06T18:25:16;101403.06;;;1.92;100.00
27032;BME280;14580;52.918;9.214;2024-01-06T18:27:42;101398.16;;;1.82;100.00
27032;BME280;14580;52.918;9.214;2024-01-06T18:30:11;101395.50;;;1.87;100.00
27032;BME280;14580;52.918;9.214;2024-01-06T18:32:37;101401.38;;;1.91;100.00
27032;BME280;14580;52.918;9.214;2024-01-06T18:35:16;101405.84;;;1.81;100.00
27032;BME280;14580;52.918;9.214;2024-01-06T18:37:42;101410.88;;;1.82;100.00
27032;BME280;14580;52.918;9.214;2024-01-06T18:40:13;101409.88;;;1.89;100.00
27032;BME280;14580;52.918;9.214;2024-01-06T18:42:39;101411.63;;;1.87;100.00
27032;BME280;14580;52.918;9.214;2024-01-06T18:45:08;101411.75;;;1.81;100.00
27032;BME280;14580;52.918;9.214;2024-01-06T18:47:34;101413.16;;;1.95;100.00
27032;BME280;14580;52.918;9.214;2024-01-06T18:50:02;101423.59;;;1.82;100.00
27032;BME280;14580;52.918;9.214;2024-01-06T18:52:29;101428.63;;;1.85;100.00
27032;BME280;14580;52.918;9.214;2024-01-06T18:54:57;101428.22;;;1.64;100.00